Terminal Aerodrome Forecast
Issued by NWS Tuscon, AZ

Home | Current Version | Previous Version | Text Only | Print | Product List | Glossary On
Versions: 1 2 3 4 5 6 7 8 9 10 11 12 13
393
FTUS45 KTWC 221318 AAA
TAFDUG
TAF AMD
KDUG 221318Z 2213/2312 15006KT P6SM FEW110
     FM221600 22016G24KT P6SM FEW080
     FM230200 22008KT P6SM FEW070 SCT120
     FM230800 12006KT P6SM FEW070 SCT120=

USA.gov is the U.S. government's official web portal to all federal, state and local government web resources and services.